createdAt,value
2022-08-01T08:26:55.710Z,4.60
2022-08-01T08:43:40.586Z,4.00
2022-08-01T08:44:43.685Z,5.30
2022-08-01T08:45:58.795Z,5.70
2022-08-01T09:18:23.859Z,4.80
2022-08-01T09:19:39.003Z,6.00
2022-08-01T09:20:23.817Z,5.80
2022-08-01T09:21:23.981Z,5.40
2022-08-01T09:22:23.871Z,5.30
2022-08-01T09:23:23.781Z,5.80
2022-08-01T09:24:28.422Z,6.30
2022-08-01T09:25:29.577Z,5.50
2022-08-01T09:26:23.740Z,5.70
2022-08-01T09:27:23.717Z,5.70
2022-08-01T09:28:23.736Z,5.40
2022-08-01T09:29:37.188Z,5.80
2022-08-01T09:30:26.150Z,5.80
2022-08-01T09:31:38.032Z,5.90
2022-08-01T09:32:26.008Z,5.70
2022-08-01T09:33:23.644Z,5.80
2022-08-01T09:34:23.641Z,5.70
2022-08-01T09:35:23.615Z,5.80
2022-08-01T09:36:23.609Z,6.00
2022-08-01T09:37:24.239Z,5.90
2022-08-01T09:38:23.582Z,5.60
2022-08-01T09:39:23.577Z,5.40
2022-08-01T09:40:23.547Z,5.40
2022-08-01T09:41:24.527Z,5.90
2022-08-01T09:42:28.771Z,5.70
2022-08-01T09:43:23.508Z,5.60
2022-08-01T09:44:39.942Z,6.10
2022-08-01T09:45:23.491Z,5.60
2022-08-01T09:46:23.468Z,5.80
2022-08-01T09:47:23.973Z,5.90
2022-08-01T09:48:28.376Z,5.70
2022-08-01T09:49:23.472Z,5.70
2022-08-01T09:50:23.468Z,5.90
2022-08-01T09:52:00.035Z,6.20
2022-08-01T09:52:26.015Z,6.20
2022-08-01T09:53:29.951Z,5.40
2022-08-01T09:54:23.393Z,5.40
2022-08-01T09:55:23.365Z,5.60
2022-08-01T09:56:23.435Z,5.50
2022-08-01T09:57:23.342Z,5.90
2022-08-01T09:58:23.375Z,5.80
2022-08-01T09:59:26.406Z,5.60
2022-08-01T10:00:44.426Z,5.10
2022-08-01T10:01:23.298Z,5.60
2022-08-01T10:02:23.270Z,5.90
2022-08-01T10:03:23.913Z,5.50
2022-08-01T10:04:23.261Z,5.30
2022-08-01T10:25:14.960Z,3.50
2022-08-01T10:26:14.933Z,3.50
2022-08-01T10:27:15.044Z,3.90
2022-08-01T10:28:14.907Z,4.30
2022-08-01T10:29:45.340Z,4.20
2022-08-01T10:30:19.951Z,4.90
2022-08-01T10:31:14.873Z,5.00
2022-08-01T10:32:14.872Z,4.80
2022-08-01T10:33:15.303Z,4.90
2022-08-01T10:34:14.835Z,4.80
2022-08-01T10:35:15.394Z,4.90
2022-08-01T10:36:14.820Z,4.70
2022-08-01T10:37:14.810Z,4.30
2022-08-01T10:38:24.126Z,4.20
2022-08-01T10:39:14.785Z,4.50
2022-08-01T10:40:29.896Z,4.10
2022-08-01T10:41:14.770Z,4.40
2022-08-01T10:42:15.855Z,4.90
2022-08-01T10:43:14.749Z,4.70
2022-08-01T10:44:14.716Z,4.80
2022-08-01T10:45:14.780Z,4.90
2022-08-01T10:46:14.703Z,4.40
2022-08-01T10:47:18.187Z,4.40
2022-08-01T10:48:14.687Z,4.20
2022-08-01T10:49:14.742Z,4.60
2022-08-01T10:50:14.970Z,4.20
2022-08-01T10:51:17.838Z,4.80
2022-08-01T10:52:14.623Z,4.80
2022-08-01T10:53:16.210Z,4.80
2022-08-01T10:54:14.613Z,4.70
2022-08-01T10:55:14.600Z,4.40
2022-08-01T10:56:16.725Z,4.50
2022-08-01T10:57:14.575Z,4.10
2022-08-01T10:58:15.764Z,4.00
2022-08-01T10:59:14.553Z,4.20
2022-08-01T11:00:14.542Z,4.00
2022-08-01T11:01:14.558Z,4.10
2022-08-01T11:02:14.502Z,4.10
2022-08-01T11:03:14.535Z,4.40
2022-08-01T11:04:17.088Z,4.10
2022-08-01T11:05:14.621Z,4.30
2022-08-01T11:06:14.459Z,3.80
2022-08-01T11:07:14.448Z,4.00
2022-08-01T11:08:14.444Z,3.90
2022-08-01T11:09:16.579Z,4.40
2022-08-01T11:10:14.822Z,4.20
2022-08-01T11:11:14.412Z,4.00
2022-08-01T11:12:23.507Z,4.00
2022-08-01T11:13:14.378Z,4.00
2022-08-01T11:14:14.404Z,4.10
2022-08-01T11:15:14.367Z,4.10
2022-08-01T11:16:16.835Z,4.20
2022-08-01T11:17:14.335Z,4.00
2022-08-01T11:18:14.328Z,3.70
2022-08-01T11:19:14.309Z,3.90
2022-08-01T11:20:14.497Z,4.00
2022-08-01T11:21:58.692Z,3.40
2022-08-01T11:22:14.279Z,3.80
2022-08-01T11:23:14.266Z,4.00
2022-08-01T11:24:14.262Z,3.60
2022-08-01T11:25:14.245Z,3.80
2022-08-01T11:26:14.254Z,3.90
2022-08-01T11:27:14.223Z,4.20
2022-08-01T11:28:15.303Z,3.90
2022-08-01T11:29:20.550Z,4.30
2022-08-01T11:30:14.186Z,4.00
2022-08-01T11:31:14.517Z,4.00
2022-08-01T11:32:14.168Z,3.60
2022-08-01T11:33:14.363Z,4.10
2022-08-01T11:34:14.143Z,3.90
2022-08-01T11:35:14.144Z,3.60
2022-08-01T11:36:15.263Z,3.50
2022-08-01T11:37:14.365Z,4.00
2022-08-01T11:38:14.108Z,3.80
2022-08-01T11:39:14.263Z,3.30
2022-08-01T11:40:14.074Z,3.70
2022-08-01T11:41:14.083Z,3.80
2022-08-01T11:42:14.059Z,3.20
2022-08-01T11:43:14.045Z,3.70
2022-08-01T11:44:14.042Z,3.30
2022-08-01T11:45:18.089Z,3.60
2022-08-01T11:46:14.033Z,3.60
2022-08-01T11:47:14.108Z,3.60
2022-08-01T11:48:13.987Z,3.40
2022-08-01T11:49:14.026Z,3.30
2022-08-01T11:50:13.964Z,3.70
2022-08-01T11:51:19.611Z,3.60
2022-08-01T11:52:13.950Z,3.40
2022-08-01T11:53:13.941Z,3.80
2022-08-01T11:54:13.917Z,3.00
2022-08-01T11:57:54.442Z,3.30
2022-08-01T11:58:54.422Z,3.40
2022-08-01T12:00:03.507Z,3.50
2022-08-01T12:00:54.404Z,3.40
2022-08-01T12:01:54.450Z,3.40
2022-08-01T12:02:54.437Z,3.40
2022-08-01T12:03:54.348Z,3.60
2022-08-01T12:04:54.354Z,3.40
2022-08-01T12:05:54.357Z,3.00
2022-08-01T12:06:54.315Z,3.60
2022-08-01T12:15:32.308Z,2.80
2022-08-01T12:16:33.135Z,3.30
2022-08-01T12:17:32.320Z,3.50
2022-08-01T12:18:32.256Z,3.10
2022-08-01T12:19:32.245Z,3.50
2022-08-01T12:21:19.150Z,4.00
2022-08-01T12:22:06.233Z,3.30
2022-08-01T12:23:06.217Z,3.60
2022-08-01T12:24:06.216Z,3.50
2022-08-01T12:25:06.203Z,3.30
2022-08-01T12:26:06.257Z,3.60
2022-08-01T12:27:06.330Z,3.00
2022-08-01T12:28:06.167Z,2.90
2022-08-01T12:29:06.156Z,3.10
2022-08-01T12:30:06.130Z,3.20
2022-08-01T12:31:06.142Z,3.50
2022-08-01T12:32:06.110Z,3.10
2022-08-01T12:40:27.393Z,3.10
2022-08-01T12:41:27.380Z,3.10
2022-08-01T12:42:27.368Z,3.20
2022-08-01T12:43:29.518Z,3.00
2022-08-01T12:44:27.344Z,2.90
2022-08-01T12:45:27.343Z,3.20
2022-08-01T12:46:27.319Z,2.70
2022-08-01T12:47:27.305Z,2.90
2022-08-01T12:48:27.295Z,2.90
2022-08-01T12:49:27.340Z,2.70
2022-08-01T12:50:27.271Z,2.80
2022-08-01T12:51:27.262Z,2.40
2022-08-01T12:52:27.374Z,2.40
2022-08-01T12:53:40.644Z,2.40
2022-08-01T12:54:27.229Z,2.60
2022-08-01T12:55:34.855Z,2.70
2022-08-01T12:56:27.219Z,3.00
2022-08-01T12:57:27.181Z,3.30
2022-08-01T12:58:27.182Z,2.90
2022-08-01T12:59:27.157Z,2.80
2022-08-01T13:00:27.145Z,3.70
2022-08-01T13:01:27.210Z,3.00
2022-08-01T13:02:27.144Z,3.30
2022-08-01T13:03:27.124Z,2.90
2022-08-01T13:04:27.102Z,3.00
2022-08-01T13:05:27.652Z,3.60
2022-08-01T13:21:34.431Z,2.70
2022-08-01T13:22:32.334Z,3.20
2022-08-01T13:24:02.993Z,3.00
2022-08-01T13:24:32.341Z,3.00
2022-08-01T13:25:32.308Z,3.00
2022-08-01T13:26:32.296Z,3.20
2022-08-01T13:27:32.283Z,2.90
2022-08-01T13:28:32.284Z,2.90
2022-08-01T13:29:32.260Z,2.60
2022-08-01T13:30:32.253Z,2.50
2022-08-01T13:31:32.270Z,2.90
2022-08-01T13:32:32.506Z,2.70
2022-08-01T13:33:41.539Z,2.80
2022-08-01T13:34:32.197Z,2.60
2022-08-01T13:35:32.177Z,2.60
2022-08-01T13:36:32.188Z,2.30
2022-08-01T14:06:43.804Z,3.20
2022-08-01T14:07:43.773Z,2.70
2022-08-01T14:08:45.976Z,2.50
2022-08-01T14:09:45.082Z,2.50
2022-08-01T14:10:43.730Z,2.70
2022-08-01T14:11:45.944Z,2.50
2022-08-01T14:21:12.799Z,2.20
2022-08-01T14:22:12.778Z,2.50
2022-08-01T14:26:26.450Z,2.50
2022-08-01T14:27:26.482Z,2.60
2022-08-01T14:28:26.421Z,2.40
2022-08-01T14:29:26.398Z,2.60
2022-08-01T14:30:26.387Z,2.30
2022-08-01T14:31:28.728Z,2.40
2022-08-01T14:32:28.772Z,2.50
2022-08-01T14:33:26.346Z,2.20
2022-08-01T14:34:26.332Z,2.40
2022-08-01T14:35:26.321Z,2.40
2022-08-01T14:36:30.595Z,2.40
2022-08-01T14:37:29.320Z,2.10
2022-08-01T14:38:31.333Z,2.20
2022-08-01T14:39:26.272Z,1.90
2022-08-01T14:40:26.271Z,2.10
2022-08-01T14:41:26.252Z,1.70
2022-08-01T14:42:26.257Z,2.10
2022-08-01T14:43:30.728Z,2.10
2022-08-01T14:44:32.865Z,1.90
2022-08-01T14:45:26.214Z,2.20
2022-08-01T14:46:26.208Z,1.60
2022-08-01T14:47:26.197Z,1.80
2022-08-01T14:48:26.190Z,1.60
2022-08-01T14:49:26.228Z,1.90
2022-08-01T14:50:26.159Z,1.70
2022-08-01T14:51:26.159Z,2.10
2022-08-01T14:52:26.144Z,1.90
2022-08-01T14:53:26.142Z,1.80
2022-08-01T14:54:26.874Z,1.80
2022-08-01T14:55:26.109Z,2.10
2022-08-01T14:56:26.093Z,1.90
2022-08-01T14:57:26.105Z,1.90
2022-08-01T14:58:26.069Z,2.10
2022-08-01T14:59:26.052Z,2.10
2022-08-01T15:00:26.133Z,2.00
2022-08-01T15:01:26.049Z,1.70
2022-08-01T15:02:26.032Z,1.90
2022-08-01T15:03:26.034Z,1.90
2022-08-01T15:04:25.991Z,1.70
2022-08-01T15:05:25.977Z,1.60
2022-08-01T15:06:25.975Z,1.40
2022-08-01T15:07:25.973Z,1.60
2022-08-01T15:08:25.942Z,1.50
2022-08-01T15:09:25.941Z,1.50
2022-08-01T15:10:25.936Z,1.40
2022-08-01T15:16:03.438Z,1.50
2022-08-01T15:17:03.417Z,1.70
2022-08-01T15:18:03.420Z,1.60
2022-08-01T15:19:03.394Z,1.60
2022-08-01T15:20:03.388Z,1.40
2022-08-01T15:22:45.510Z,1.30
2022-08-01T15:23:45.452Z,1.40
2022-08-01T15:24:45.460Z,1.20
2022-08-01T15:25:45.420Z,1.50
2022-08-01T15:26:45.419Z,1.40
2022-08-01T15:27:45.410Z,1.40
2022-08-01T15:28:45.397Z,1.30
2022-08-01T15:29:45.379Z,1.40
2022-08-01T15:30:45.361Z,1.40
2022-08-01T15:31:45.360Z,1.40
2022-08-01T15:32:45.364Z,1.50
2022-08-01T15:33:45.340Z,1.50
2022-08-01T15:34:45.319Z,1.20
2022-08-01T15:35:45.305Z,1.30
2022-08-01T15:36:45.309Z,1.50
2022-08-01T15:37:45.297Z,1.30
2022-08-01T15:38:45.285Z,1.40
2022-08-01T15:39:45.274Z,1.40
2022-08-01T15:40:45.263Z,1.40
2022-08-01T15:41:45.241Z,1.30
2022-08-01T15:49:35.799Z,1.70
2022-08-01T15:50:35.744Z,1.40
2022-08-01T15:51:35.701Z,1.40
2022-08-01T15:52:35.706Z,1.60
2022-08-01T15:53:35.675Z,1.40
2022-08-01T15:54:35.673Z,1.50
2022-08-01T15:55:35.661Z,1.50
2022-08-01T15:56:35.641Z,1.50
2022-08-01T15:57:35.655Z,1.30
2022-08-01T15:58:35.618Z,1.50
2022-08-01T15:59:38.977Z,1.30
2022-08-01T16:00:39.050Z,1.30
2022-08-01T16:01:35.651Z,1.30
2022-08-01T16:02:35.588Z,1.30
2022-08-01T16:03:35.571Z,1.40
2022-08-01T16:04:35.560Z,1.40
2022-08-01T16:05:38.273Z,1.60
2022-08-01T16:06:35.533Z,1.30
2022-08-01T16:07:35.585Z,1.40
2022-08-01T16:08:35.509Z,1.80
2022-08-01T16:09:35.501Z,1.50
2022-08-01T16:10:35.500Z,1.30
2022-08-01T16:11:39.629Z,1.30
2022-08-01T16:12:35.486Z,1.20
2022-08-01T16:13:35.472Z,1.30
2022-08-01T16:14:35.454Z,1.40
2022-08-01T16:15:36.818Z,1.60
2022-08-01T16:16:35.435Z,1.30
2022-08-01T16:17:38.345Z,1.30
2022-08-01T16:18:35.425Z,1.30
2022-08-01T16:19:35.421Z,1.40
2022-08-01T16:20:35.406Z,1.20
2022-08-01T16:21:35.404Z,1.30
2022-08-01T16:22:35.401Z,1.20
2022-08-01T17:00:35.324Z,1.10
2022-08-01T17:03:17.457Z,1.20
2022-08-01T17:04:06.953Z,1.30
2022-08-01T17:05:08.463Z,1.30
2022-08-01T17:07:42.342Z,1.50
2022-08-01T17:08:46.734Z,1.50
2022-08-01T17:09:43.647Z,1.40
2022-08-01T17:10:42.296Z,1.30
2022-08-01T17:11:42.282Z,1.30
2022-08-01T17:12:42.284Z,1.40
2022-08-01T17:13:42.281Z,1.40
2022-08-01T17:17:16.342Z,1.80
